ESMQ

Kalmar Airport

Sweden
METAR ESMQ 241320Z 33017KT CAVOK 13/M01 Q1015
Observed Flight Rules
Sep-24 @ 13:20 UTC (36 minutes ago) Visual Flight Rules
Wind Visibility Clouds
330° at 17 knots 10,000+ meters
  • Clear skies
Temperatures Readings
Current 13°C / 55°F
Dewpoint -1°C / 30°F
Humidity 38%
Altimeter 29.97" Hg
Pressure 1015 hPa
Elevation 16
METAR ESMQ 241320Z 33017KT CAVOK 13/M01 Q1015
Observed Flight Rules
Sep-24 @ 13:20 UTC
(36 minutes ago)
VFR
Wind Visibility
330° at 17 knots 10,000+ meters
Clouds
  • Clear skies
Temperature Dewpoint
13°C / 55°F -1°C / 30°F
Humidity Altimeter Pressure
38% 29.97" Hg 1015 hPa